Terminal Aerodrome Forecast
Issued by NWS Grand Forks, ND

Home | Current Version | Previous Version | Graphics & Text | Print | Product List | Glossary On
Versions: 1 2 3 4 5 6 7 8 9 10 11 12 13 14
000
FTUS43 KFGF 151100
TAFGFK
TAF
KGFK 151120Z 1512/1612 27006KT P6SM SKC
      TEMPO 1512/1513 BKN070
     FM151800 28012KT P6SM SCT050
     FM160000 26006KT P6SM SKC=

USA.gov is the U.S. government's official web portal to all federal, state and local government web resources and services.